createdAt,value
2022-12-08T00:01:28.596Z,100639.09
2022-12-08T00:03:58.998Z,100637.47
2022-12-08T00:07:07.344Z,100650.44
2022-12-08T00:09:40.386Z,100647.91
2022-12-08T00:12:13.147Z,100643.50
2022-12-08T00:14:43.059Z,100641.91
2022-12-08T00:17:11.984Z,100659.38
2022-12-08T00:19:40.539Z,100644.59
2022-12-08T00:22:09.550Z,100648.00
2022-12-08T00:24:41.498Z,100652.25
2022-12-08T00:27:11.073Z,100655.78
2022-12-08T00:29:38.866Z,100648.78
2022-12-08T00:32:06.799Z,100653.06
2022-12-08T00:34:34.762Z,100654.06
2022-12-08T00:37:02.292Z,100647.09
2022-12-08T00:39:29.821Z,100632.38
2022-12-08T00:42:12.605Z,100649.66
2022-12-08T00:44:41.207Z,100657.50
2022-12-08T00:47:09.107Z,100656.63
2022-12-08T00:49:36.656Z,100660.13
2022-12-08T00:52:04.269Z,100667.09
2022-12-08T00:54:32.051Z,100655.88
2022-12-08T00:56:59.574Z,100669.66
2022-12-08T00:59:27.042Z,100664.56
2022-12-08T01:01:54.822Z,100662.78
2022-12-08T01:04:22.696Z,100664.47
2022-12-08T01:06:50.389Z,100665.31
2022-12-08T01:09:19.092Z,100663.56
2022-12-08T01:11:47.194Z,100662.66
2022-12-08T01:14:14.825Z,100656.66
2022-12-08T01:16:43.286Z,100671.34
2022-12-08T01:19:12.954Z,100674.75
2022-12-08T01:21:41.729Z,100663.53
2022-12-08T01:24:20.641Z,100660.94
2022-12-08T01:26:49.618Z,100679.06
2022-12-08T01:29:17.721Z,100660.00
2022-12-08T01:31:45.574Z,100663.44
2022-12-08T01:34:13.328Z,100673.84
2022-12-08T01:36:42.010Z,100659.09
2022-12-08T01:39:14.866Z,100666.81
2022-12-08T01:41:43.803Z,100660.84
2022-12-08T01:44:11.332Z,100651.38
2022-12-08T01:46:40.864Z,100651.31
2022-12-08T01:49:29.466Z,100653.94
2022-12-08T01:52:14.664Z,100644.41
2022-12-08T01:54:54.067Z,100640.97
2022-12-08T01:57:35.115Z,100634.94
2022-12-08T02:00:09.297Z,100634.00
2022-12-08T02:02:49.627Z,100625.47
2022-12-08T02:05:17.475Z,100620.28
2022-12-08T02:07:46.776Z,100632.38
2022-12-08T02:10:18.772Z,100628.94
2022-12-08T02:12:47.252Z,100635.84
2022-12-08T02:15:15.561Z,100634.91
2022-12-08T02:17:50.739Z,100623.81
2022-12-08T02:20:48.626Z,100622.09
2022-12-08T02:23:41.565Z,100616.03
2022-12-08T02:26:43.807Z,100620.34
2022-12-08T02:29:26.801Z,100623.84
2022-12-08T02:32:21.852Z,100632.53
2022-12-08T02:35:27.856Z,100621.31
2022-12-08T02:38:32.416Z,100616.94
2022-12-08T02:40:59.862Z,100603.94
2022-12-08T02:44:13.069Z,100610.81
2022-12-08T02:46:45.448Z,100613.41
2022-12-08T02:49:15.299Z,100603.88
2022-12-08T02:51:42.865Z,100604.69
2022-12-08T02:54:10.572Z,100606.37
2022-12-08T02:56:38.218Z,100604.62
2022-12-08T02:59:23.638Z,100595.09
2022-12-08T03:02:02.039Z,100604.56
2022-12-08T03:04:42.598Z,100597.63
2022-12-08T03:07:32.016Z,100597.56
2022-12-08T03:10:12.747Z,100596.78
2022-12-08T03:12:44.548Z,100588.12
2022-12-08T03:15:14.844Z,100597.63
2022-12-08T03:17:45.982Z,100598.47
2022-12-08T03:20:18.963Z,100606.31
2022-12-08T03:22:47.994Z,100589.97
2022-12-08T03:25:17.494Z,100595.09
2022-12-08T03:27:45.100Z,100596.97
2022-12-08T03:30:13.099Z,100589.09
2022-12-08T03:32:47.861Z,100574.44
2022-12-08T03:35:18.298Z,100580.38
2022-12-08T03:37:45.773Z,100576.16
2022-12-08T03:40:17.068Z,100580.59
2022-12-08T03:42:44.878Z,100565.94
2022-12-08T03:45:12.494Z,100571.00
2022-12-08T03:47:39.985Z,100558.00
2022-12-08T03:50:08.147Z,100568.34
2022-12-08T03:52:35.774Z,100570.91
2022-12-08T03:55:03.477Z,100572.63
2022-12-08T03:57:31.311Z,100579.50
2022-12-08T03:59:59.181Z,100575.16
2022-12-08T04:02:26.720Z,100568.22
2022-12-08T04:04:54.515Z,100575.97
2022-12-08T04:07:21.968Z,100571.63
2022-12-08T04:09:49.486Z,100579.34
2022-12-08T04:12:17.385Z,100563.81
2022-12-08T04:14:44.988Z,100556.03
2022-12-08T04:17:12.489Z,100565.50
2022-12-08T04:19:41.031Z,100549.13
2022-12-08T04:22:08.800Z,100557.72
2022-12-08T04:24:36.312Z,100553.50
2022-12-08T04:27:04.015Z,100559.75
2022-12-08T04:29:31.488Z,100565.78
2022-12-08T04:31:59.018Z,100556.25
2022-12-08T04:34:26.947Z,100564.84
2022-12-08T04:36:54.415Z,100562.31
2022-12-08T04:39:22.171Z,100558.09
2022-12-08T04:41:50.003Z,100560.72
2022-12-08T04:44:17.605Z,100569.25
2022-12-08T04:46:45.102Z,100566.72
2022-12-08T04:49:12.862Z,100571.03
2022-12-08T04:51:40.297Z,100566.75
2022-12-08T04:54:07.782Z,100565.87
2022-12-08T04:56:35.612Z,100556.28
2022-12-08T04:59:03.302Z,100548.41
2022-12-08T05:01:30.980Z,100543.16
2022-12-08T05:03:58.760Z,100537.12
2022-12-08T05:06:26.203Z,100543.91
2022-12-08T05:08:53.810Z,100547.34
2022-12-08T05:11:21.517Z,100555.06
2022-12-08T05:13:49.001Z,100554.16
2022-12-08T05:16:16.621Z,100557.56
2022-12-08T05:18:44.724Z,100561.03
2022-12-08T05:21:12.445Z,100557.53
2022-12-08T05:23:39.955Z,100555.81
2022-12-08T05:26:07.683Z,100560.97
2022-12-08T05:28:43.490Z,100557.50
2022-12-08T05:31:13.990Z,100546.25
2022-12-08T05:33:41.769Z,100551.38
2022-12-08T05:36:10.582Z,100556.59
2022-12-08T05:38:38.959Z,100558.34
2022-12-08T05:41:10.932Z,100549.03
2022-12-08T05:43:38.834Z,100547.25
2022-12-08T05:46:07.744Z,100550.78
2022-12-08T05:48:36.105Z,100553.38
2022-12-08T05:51:04.506Z,100556.03
2022-12-08T05:53:32.102Z,100563.81
2022-12-08T05:55:59.550Z,100560.34
2022-12-08T05:58:27.317Z,100543.13
2022-12-08T06:00:54.839Z,100548.19
2022-12-08T06:03:22.553Z,100546.38
2022-12-08T06:05:50.001Z,100539.41
2022-12-08T06:08:17.613Z,100548.84
2022-12-08T06:10:46.457Z,100547.12
2022-12-08T06:13:14.424Z,100549.66
2022-12-08T06:15:42.457Z,100549.59
2022-12-08T06:18:11.193Z,100546.97
2022-12-08T06:20:38.776Z,100550.38
2022-12-08T06:23:06.616Z,100551.25
2022-12-08T06:25:34.361Z,100548.66
2022-12-08T06:28:02.093Z,100552.91
2022-12-08T06:30:29.645Z,100550.28
2022-12-08T06:32:57.636Z,100551.12
2022-12-08T06:35:25.330Z,100555.44
2022-12-08T06:37:53.020Z,100554.59
2022-12-08T06:40:21.173Z,100552.00
2022-12-08T06:42:48.960Z,100558.91
2022-12-08T06:45:17.702Z,100561.47
2022-12-08T06:47:45.595Z,100560.62
2022-12-08T06:50:13.842Z,100553.81
2022-12-08T06:52:51.630Z,100564.97
2022-12-08T06:55:57.329Z,100558.97
2022-12-08T06:58:14.762Z,100558.91
2022-12-08T07:00:42.797Z,100554.59
2022-12-08T07:03:11.728Z,100569.25
2022-12-08T07:05:39.681Z,100576.16
2022-12-08T07:08:08.807Z,100573.69
2022-12-08T07:10:37.233Z,100566.84
2022-12-08T07:13:05.817Z,100570.34
2022-12-08T07:15:33.703Z,100562.53
2022-12-08T07:18:01.197Z,100565.28
2022-12-08T07:20:28.827Z,100574.81
2022-12-08T07:22:56.990Z,100566.22
2022-12-08T07:25:24.674Z,100567.13
2022-12-08T07:27:53.363Z,100565.28
2022-12-08T07:30:21.298Z,100567.03
2022-12-08T07:32:48.797Z,100560.84
2022-12-08T07:35:16.418Z,100560.62
2022-12-08T07:37:44.193Z,100561.41
2022-12-08T07:40:12.359Z,100553.50
2022-12-08T07:42:39.870Z,100554.28
2022-12-08T07:45:08.198Z,100552.50
2022-12-08T07:47:35.926Z,100565.34
2022-12-08T07:50:04.594Z,100560.13
2022-12-08T07:52:34.481Z,100564.31
2022-12-08T07:55:02.230Z,100560.78
2022-12-08T07:57:29.815Z,100550.47
2022-12-08T07:59:57.945Z,100552.88
2022-12-08T08:02:26.434Z,100562.25
2022-12-08T08:04:54.645Z,100563.03
2022-12-08T08:07:22.251Z,100558.66
2022-12-08T08:09:49.941Z,100556.84
2022-12-08T08:12:33.367Z,100553.22
2022-12-08T08:15:01.909Z,100555.72
2022-12-08T08:17:30.365Z,100547.00
2022-12-08T08:19:58.072Z,100541.00
2022-12-08T08:22:26.419Z,100540.16
2022-12-08T08:24:54.462Z,100532.44
2022-12-08T08:27:22.645Z,100526.50
2022-12-08T08:29:50.265Z,100526.44
2022-12-08T08:32:20.095Z,100527.31
2022-12-08T08:34:47.557Z,100520.47
2022-12-08T08:37:15.154Z,100510.12
2022-12-08T08:39:43.172Z,100511.81
2022-12-08T08:42:10.686Z,100513.56
2022-12-08T08:44:39.106Z,100509.25
2022-12-08T08:47:07.003Z,100512.72
2022-12-08T08:49:34.607Z,100516.19
2022-12-08T08:52:04.777Z,100506.59
2022-12-08T08:54:33.075Z,100503.97
2022-12-08T08:57:01.498Z,100500.34
2022-12-08T08:59:28.980Z,100503.72
2022-12-08T09:01:56.855Z,100499.38
2022-12-08T09:04:25.671Z,100486.34
2022-12-08T09:06:53.254Z,100484.53
2022-12-08T09:09:21.166Z,100488.75
2022-12-08T09:11:48.808Z,100480.87
2022-12-08T09:14:16.340Z,100472.94
2022-12-08T09:16:44.707Z,100466.78
2022-12-08T09:19:12.435Z,100460.63
2022-12-08T09:21:41.895Z,100448.44
2022-12-08T09:24:15.696Z,100443.97
2022-12-08T09:26:44.221Z,100452.53
2022-12-08T09:29:12.264Z,100433.44
2022-12-08T09:31:40.099Z,100441.94
2022-12-08T09:34:07.720Z,100439.28
2022-12-08T09:36:35.677Z,100441.72
2022-12-08T09:39:03.752Z,100432.97
2022-12-08T09:41:39.171Z,100427.75
2022-12-08T09:44:36.215Z,100434.56
2022-12-08T09:47:13.749Z,100433.59
2022-12-08T09:49:45.824Z,100431.78
2022-12-08T09:52:20.360Z,100429.03
2022-12-08T09:54:48.297Z,100421.91
2022-12-08T09:57:19.594Z,100407.03
2022-12-08T09:59:53.020Z,100405.12
2022-12-08T10:02:24.044Z,100406.72
2022-12-08T10:04:54.877Z,100410.03
2022-12-08T10:07:36.960Z,100406.41
2022-12-08T10:10:32.736Z,100410.53
2022-12-08T10:13:11.877Z,100407.75
2022-12-08T10:16:01.072Z,100390.91
2022-12-08T10:18:31.336Z,100396.84
2022-12-08T10:21:22.667Z,100395.38
2022-12-08T10:23:58.530Z,100394.53
2022-12-08T10:26:26.286Z,100388.47
2022-12-08T10:28:53.991Z,100394.59
2022-12-08T10:31:25.704Z,100389.25
2022-12-08T10:34:15.403Z,100379.66
2022-12-08T10:36:50.419Z,100374.41
2022-12-08T10:39:43.877Z,100359.66
2022-12-08T10:42:14.782Z,100355.94
2022-12-08T10:44:57.474Z,100348.87
2022-12-08T10:47:26.637Z,100340.00
2022-12-08T10:50:19.331Z,100332.13
2022-12-08T10:52:55.283Z,100321.69
2022-12-08T10:55:23.214Z,100325.22
2022-12-08T10:57:51.141Z,100308.78
2022-12-08T11:00:22.201Z,100308.00
2022-12-08T11:02:57.951Z,100310.63
2022-12-08T11:05:35.855Z,100301.81
2022-12-08T11:12:07.511Z,100290.44
2022-12-08T11:14:48.084Z,100286.88
2022-12-08T11:17:42.176Z,100265.94
2022-12-08T11:20:10.743Z,100263.19
2022-12-08T11:22:40.100Z,100260.41
2022-12-08T11:25:07.697Z,100261.94
2022-12-08T11:27:37.087Z,100270.53
2022-12-08T11:30:19.521Z,100273.00
2022-12-08T11:33:06.926Z,100258.28
2022-12-08T11:35:39.519Z,100259.03
2022-12-08T11:38:23.857Z,100261.56
2022-12-08T11:41:07.516Z,100252.81
2022-12-08T11:43:46.599Z,100245.03
2022-12-08T11:46:21.636Z,100239.94
2022-12-08T11:48:54.599Z,100234.72
2022-12-08T11:51:45.289Z,100230.41
2022-12-08T11:54:20.477Z,100220.81
2022-12-08T11:56:58.386Z,100216.44
2022-12-08T11:59:30.678Z,100215.66
2022-12-08T12:02:00.119Z,100221.66
2022-12-08T12:04:37.963Z,100209.47
2022-12-08T12:07:37.183Z,100212.09
2022-12-08T12:10:20.369Z,100229.44
2022-12-08T12:13:08.988Z,100245.16
2022-12-08T12:16:04.297Z,100249.50
2022-12-08T12:18:49.803Z,100247.69
2022-12-08T12:21:27.183Z,100232.81
2022-12-08T12:24:01.737Z,100226.59
2022-12-08T12:26:31.885Z,100221.38
2022-12-08T12:29:16.626Z,100216.06
2022-12-08T12:31:49.997Z,100219.50
2022-12-08T12:34:21.557Z,100224.66
2022-12-08T12:36:58.466Z,100239.47
2022-12-08T12:39:30.141Z,100219.69
2022-12-08T12:42:00.290Z,100220.44
2022-12-08T12:44:27.783Z,100216.09
2022-12-08T12:46:58.249Z,100218.75
2022-12-08T12:49:43.704Z,100216.16
2022-12-08T12:52:16.922Z,100217.84
2022-12-08T12:54:50.450Z,100216.09
2022-12-08T12:57:23.323Z,100227.34
2022-12-08T13:00:05.206Z,100219.66
2022-12-08T13:02:33.848Z,100216.84
2022-12-08T13:05:14.913Z,100223.72
2022-12-08T13:07:46.250Z,100209.78
2022-12-08T13:10:46.539Z,100205.47
2022-12-08T13:13:15.104Z,100197.88
2022-12-08T13:15:52.438Z,100199.56
2022-12-08T13:18:24.033Z,100192.56
2022-12-08T13:21:15.187Z,100192.50
2022-12-08T13:23:48.776Z,100195.03
2022-12-08T13:26:20.399Z,100202.19
2022-12-08T13:29:01.276Z,100202.28
2022-12-08T13:31:35.590Z,100194.56
2022-12-08T13:34:16.798Z,100206.63
2022-12-08T13:37:01.440Z,100208.47
2022-12-08T13:39:49.151Z,100205.78
2022-12-08T13:42:27.014Z,100204.09
2022-12-08T13:48:23.870Z,100213.44
2022-12-08T13:52:59.811Z,100210.84
2022-12-08T13:59:34.395Z,100204.75
2022-12-08T14:02:05.894Z,100203.03
2022-12-08T14:04:54.626Z,100197.06
2022-12-08T14:07:22.547Z,100187.53
2022-12-08T14:09:51.217Z,100196.19
2022-12-08T14:12:24.422Z,100191.06
2022-12-08T14:15:04.047Z,100179.41
2022-12-08T14:17:33.001Z,100178.59
2022-12-08T14:20:04.334Z,100176.94
2022-12-08T14:22:36.646Z,100166.63
2022-12-08T14:25:06.471Z,100163.13
2022-12-08T14:27:36.084Z,100162.28
2022-12-08T14:30:08.372Z,100158.84
2022-12-08T14:32:42.004Z,100167.56
2022-12-08T14:35:09.785Z,100167.72
2022-12-08T14:37:45.008Z,100171.56
2022-12-08T14:40:23.103Z,100176.81
2022-12-08T14:43:07.896Z,100186.50
2022-12-08T14:45:41.729Z,100190.00
2022-12-08T14:48:19.324Z,100192.13
2022-12-08T14:50:56.110Z,100186.75
2022-12-08T14:53:23.831Z,100191.97
2022-12-08T14:55:52.027Z,100193.72
2022-12-08T14:58:24.180Z,100176.50
2022-12-08T15:00:54.610Z,100173.81
2022-12-08T15:03:22.882Z,100168.75
2022-12-08T15:05:57.175Z,100188.69
2022-12-08T15:08:25.321Z,100185.38
2022-12-08T15:11:25.240Z,100184.41
2022-12-08T15:13:54.559Z,100189.75
2022-12-08T15:16:27.164Z,100191.44
2022-12-08T15:19:16.701Z,100180.16
2022-12-08T15:21:45.098Z,100175.78
2022-12-08T15:24:13.991Z,100173.97
2022-12-08T15:26:47.356Z,100173.94
2022-12-08T15:29:25.246Z,100159.31
2022-12-08T15:31:57.899Z,100151.34
2022-12-08T15:34:26.046Z,100143.66
2022-12-08T15:36:57.570Z,100157.47
2022-12-08T15:39:31.767Z,100149.72
2022-12-08T15:42:00.381Z,100152.25
2022-12-08T15:44:29.315Z,100152.25
2022-12-08T15:46:58.714Z,100149.66
2022-12-08T15:49:26.570Z,100151.47
2022-12-08T15:52:01.930Z,100149.72
2022-12-08T15:54:35.783Z,100153.13
2022-12-08T15:57:19.169Z,100154.94
2022-12-08T15:59:50.639Z,100148.97
2022-12-08T16:02:22.503Z,100150.66
2022-12-08T16:07:39.457Z,100149.72
2022-12-08T16:10:08.798Z,100150.72
2022-12-08T16:16:00.859Z,100156.03
2022-12-08T16:18:35.004Z,100150.91
2022-12-08T16:21:12.427Z,100149.19
2022-12-08T16:23:50.094Z,100165.91
2022-12-08T16:27:01.228Z,100165.38
2022-12-08T16:29:08.052Z,100176.00
2022-12-08T16:31:35.988Z,100188.38
2022-12-08T16:34:03.540Z,100182.91
2022-12-08T16:36:31.090Z,100180.22
2022-12-08T16:39:17.295Z,100181.91
2022-12-08T16:42:03.770Z,100190.59
2022-12-08T16:44:31.517Z,100189.97
2022-12-08T16:46:58.935Z,100204.69
2022-12-08T16:49:26.439Z,100192.59
2022-12-08T16:51:54.296Z,100202.00
2022-12-08T16:54:21.823Z,100200.25
2022-12-08T16:56:49.419Z,100194.13
2022-12-08T16:59:17.150Z,100197.34
2022-12-08T17:01:44.756Z,100184.22
2022-12-08T17:07:00.542Z,100188.44
2022-12-08T17:09:29.188Z,100191.16
2022-12-08T17:12:03.293Z,100184.22
2022-12-08T17:14:35.364Z,100181.62
2022-12-08T17:17:03.220Z,100179.09
2022-12-08T17:19:30.852Z,100176.50
2022-12-08T17:21:58.877Z,100179.44
2022-12-08T17:24:29.133Z,100180.91
2022-12-08T17:27:04.151Z,100174.75
2022-12-08T17:29:32.274Z,100168.69
2022-12-08T17:31:59.901Z,100169.59
2022-12-08T17:34:27.609Z,100164.47
2022-12-08T17:36:55.847Z,100171.44
2022-12-08T17:39:23.463Z,100173.31
2022-12-08T17:41:51.425Z,100170.81
2022-12-08T17:44:19.926Z,100182.84
2022-12-08T17:46:52.613Z,100175.87
2022-12-08T17:49:29.606Z,100185.72
2022-12-08T17:51:59.840Z,100191.72
2022-12-08T17:54:28.529Z,100186.72
2022-12-08T17:56:58.607Z,100188.50
2022-12-08T17:59:28.109Z,100185.03
2022-12-08T18:01:57.305Z,100185.75
2022-12-08T18:04:25.966Z,100179.75
2022-12-08T18:06:53.670Z,100175.41
2022-12-08T18:09:21.917Z,100181.44
2022-12-08T18:11:49.987Z,100172.78
2022-12-08T18:14:17.748Z,100164.81
2022-12-08T18:16:46.731Z,100160.53
2022-12-08T18:19:15.886Z,100166.44
2022-12-08T18:21:43.795Z,100157.88
2022-12-08T18:24:18.223Z,100170.09
2022-12-08T18:26:46.367Z,100183.28
2022-12-08T18:29:14.086Z,100180.91
2022-12-08T18:31:41.988Z,100178.06
2022-12-08T18:34:09.800Z,100181.59
2022-12-08T18:36:37.530Z,100177.28
2022-12-08T18:39:10.517Z,100167.81
2022-12-08T18:41:38.935Z,100180.59
2022-12-08T18:44:06.472Z,100186.88
2022-12-08T18:46:34.133Z,100183.50
2022-12-08T18:49:02.029Z,100182.59
2022-12-08T18:51:29.583Z,100185.38
2022-12-08T18:53:58.302Z,100188.06
2022-12-08T18:56:28.840Z,100190.63
2022-12-08T18:59:02.791Z,100195.88
2022-12-08T19:01:33.380Z,100199.25
2022-12-08T19:06:51.812Z,100191.53
2022-12-08T19:09:20.077Z,100181.66
2022-12-08T19:11:47.847Z,100172.94
2022-12-08T19:14:15.939Z,100167.53
2022-12-08T19:16:43.715Z,100165.75
2022-12-08T19:19:11.552Z,100170.25
2022-12-08T19:21:45.930Z,100172.09
2022-12-08T19:24:14.167Z,100175.59
2022-12-08T19:26:43.212Z,100179.91
2022-12-08T19:29:12.070Z,100178.94
2022-12-08T19:31:39.834Z,100191.47
2022-12-08T19:34:09.361Z,100195.69
2022-12-08T19:36:42.482Z,100199.28
2022-12-08T19:39:35.676Z,100203.84
2022-12-08T19:42:23.189Z,100187.09
2022-12-08T19:44:54.114Z,100196.59
2022-12-08T19:47:26.333Z,100194.00
2022-12-08T19:50:15.578Z,100201.00
2022-12-08T19:52:44.212Z,100183.63
2022-12-08T19:55:13.139Z,100184.47
2022-12-08T19:57:40.903Z,100179.41
2022-12-08T20:00:10.432Z,100178.22
2022-12-08T20:02:38.967Z,100157.28
2022-12-08T20:05:07.446Z,100184.25
2022-12-08T20:07:36.256Z,100181.66
2022-12-08T20:10:09.740Z,100195.69
2022-12-08T20:12:37.660Z,100211.38
2022-12-08T20:15:06.319Z,100189.69
2022-12-08T20:17:34.152Z,100196.47
2022-12-08T20:20:06.834Z,100200.81
2022-12-08T20:22:35.970Z,100203.50
2022-12-08T20:25:03.934Z,100216.44
2022-12-08T20:27:32.899Z,100211.47
2022-12-08T20:30:01.030Z,100223.56
2022-12-08T20:32:28.862Z,100222.31
2022-12-08T20:34:56.721Z,100216.84
2022-12-08T20:37:24.614Z,100226.38
2022-12-08T20:39:52.766Z,100223.00
2022-12-08T20:42:20.394Z,100234.41
2022-12-08T20:44:48.466Z,100225.16
2022-12-08T20:47:16.316Z,100214.47
2022-12-08T20:49:44.291Z,100219.87
2022-12-08T20:52:12.141Z,100221.50
2022-12-08T20:54:39.814Z,100217.06
2022-12-08T20:57:07.567Z,100224.97
2022-12-08T20:59:36.296Z,100221.72
2022-12-08T21:02:04.092Z,100225.94
2022-12-08T21:04:31.760Z,100225.34
2022-12-08T21:07:00.599Z,100220.72
2022-12-08T21:09:28.537Z,100212.97
2022-12-08T21:11:56.123Z,100217.41
2022-12-08T21:14:24.117Z,100214.81
2022-12-08T21:16:52.064Z,100225.03
2022-12-08T21:19:20.832Z,100219.09
2022-12-08T21:21:50.813Z,100222.47
2022-12-08T21:24:19.023Z,100232.19
2022-12-08T21:26:46.809Z,100241.63
2022-12-08T21:29:14.668Z,100233.87
2022-12-08T21:31:42.328Z,100240.13
2022-12-08T21:34:10.828Z,100252.97
2022-12-08T21:36:38.794Z,100242.53
2022-12-08T21:39:12.010Z,100240.97
2022-12-08T21:41:58.724Z,100243.84
2022-12-08T21:44:26.475Z,100244.41
2022-12-08T21:46:54.323Z,100232.94
2022-12-08T21:49:22.027Z,100242.41
2022-12-08T21:51:49.742Z,100251.13
2022-12-08T21:54:19.249Z,100249.44
2022-12-08T21:56:49.032Z,100243.56
2022-12-08T21:59:18.132Z,100227.44
2022-12-08T22:01:45.991Z,100245.34
2022-12-08T22:04:18.229Z,100235.84
2022-12-08T22:06:46.015Z,100232.97
2022-12-08T22:09:15.266Z,100245.53
2022-12-08T22:11:43.980Z,100249.66
2022-12-08T22:14:14.913Z,100252.25
2022-12-08T22:16:44.070Z,100246.19
2022-12-08T22:19:12.683Z,100257.69
2022-12-08T22:21:41.599Z,100261.09
2022-12-08T22:24:09.834Z,100269.69
2022-12-08T22:26:37.453Z,100266.63
2022-12-08T22:29:05.279Z,100268.13
2022-12-08T22:31:33.187Z,100265.78
2022-12-08T22:34:00.752Z,100257.25
2022-12-08T22:36:29.909Z,100267.47
2022-12-08T22:38:57.644Z,100267.00
2022-12-08T22:41:25.430Z,100264.37
2022-12-08T22:43:53.426Z,100261.84
2022-12-08T22:46:26.422Z,100253.87
2022-12-08T22:48:54.647Z,100244.22
2022-12-08T22:51:22.482Z,100251.91
2022-12-08T22:53:50.456Z,100260.69
2022-12-08T22:56:19.332Z,100286.59
2022-12-08T22:58:47.781Z,100292.84
2022-12-08T23:01:27.213Z,100285.81
2022-12-08T23:03:55.665Z,100281.50
2022-12-08T23:06:23.998Z,100283.09
2022-12-08T23:08:52.378Z,100282.38
2022-12-08T23:11:22.623Z,100278.06
2022-12-08T23:13:50.295Z,100266.66
2022-12-08T23:16:18.024Z,100270.91
2022-12-08T23:18:46.881Z,100272.00
2022-12-08T23:21:18.119Z,100266.63
2022-12-08T23:23:46.237Z,100250.94
2022-12-08T23:26:23.064Z,100264.75
2022-12-08T23:28:51.173Z,100278.78
2022-12-08T23:31:20.164Z,100276.97
2022-12-08T23:33:48.654Z,100271.09
2022-12-08T23:36:18.365Z,100268.38
2022-12-08T23:38:45.985Z,100270.25
2022-12-08T23:41:15.075Z,100266.81
2022-12-08T23:43:48.809Z,100265.13
2022-12-08T23:46:18.488Z,100265.91
2022-12-08T23:48:46.573Z,100252.22
2022-12-08T23:51:14.622Z,100243.44
2022-12-08T23:53:42.155Z,100233.09
2022-12-08T23:56:12.202Z,100237.28
2022-12-08T23:58:40.661Z,100242.47
